createdAt,value
2018-12-16T00:01:48.620Z,93.50
2018-12-16T00:04:16.910Z,93.50
2018-12-16T00:06:45.048Z,93.30
2018-12-16T00:09:13.248Z,93.10
2018-12-16T00:11:41.393Z,92.90
2018-12-16T00:14:09.569Z,93.10
2018-12-16T00:16:37.693Z,93.10
2018-12-16T00:19:05.996Z,93.10
2018-12-16T00:21:34.078Z,93.00
2018-12-16T00:24:02.196Z,93.10
2018-12-16T00:26:40.621Z,93.00
2018-12-16T00:29:08.918Z,93.20
2018-12-16T00:31:37.193Z,93.00
2018-12-16T00:34:05.801Z,93.10
2018-12-16T00:36:34.057Z,93.10
2018-12-16T00:39:03.188Z,92.80
2018-12-16T00:41:31.441Z,92.90
2018-12-16T00:44:00.245Z,92.90
2018-12-16T00:46:29.017Z,93.00
2018-12-16T00:48:57.319Z,92.90
2018-12-16T00:51:25.811Z,93.10
2018-12-16T00:53:54.703Z,93.00
2018-12-16T00:56:23.048Z,92.70
2018-12-16T00:58:51.256Z,92.50
2018-12-16T01:01:20.352Z,92.60
2018-12-16T01:03:48.488Z,92.60
2018-12-16T01:06:16.595Z,92.50
2018-12-16T01:08:44.880Z,92.50
2018-12-16T01:11:12.993Z,92.60
2018-12-16T01:13:41.352Z,92.40
2018-12-16T01:16:09.508Z,92.50
2018-12-16T01:18:37.682Z,92.50
2018-12-16T01:21:05.789Z,92.50
2018-12-16T01:23:34.235Z,92.30
2018-12-16T01:26:02.410Z,92.30
2018-12-16T01:28:30.512Z,92.20
2018-12-16T01:30:58.917Z,92.10
2018-12-16T01:33:27.307Z,92.00
2018-12-16T01:35:55.440Z,92.00
2018-12-16T01:38:23.570Z,91.90
2018-12-16T01:40:51.711Z,92.30
2018-12-16T01:43:19.746Z,92.00
2018-12-16T01:45:47.897Z,91.70
2018-12-16T01:48:16.076Z,91.80
2018-12-16T01:50:44.188Z,91.70
2018-12-16T01:53:12.412Z,91.50
2018-12-16T01:55:40.516Z,91.40
2018-12-16T01:58:08.663Z,91.30
2018-12-16T02:00:38.069Z,91.70
2018-12-16T02:03:06.185Z,91.30
2018-12-16T02:05:34.341Z,91.40
2018-12-16T02:08:02.586Z,91.10
2018-12-16T02:10:30.697Z,90.80
2018-12-16T02:12:58.820Z,90.70
2018-12-16T02:15:26.945Z,91.00
2018-12-16T02:17:55.193Z,90.50
2018-12-16T02:20:23.400Z,90.50
2018-12-16T02:22:56.764Z,90.20
2018-12-16T02:25:21.694Z,90.30
2018-12-16T02:27:49.809Z,90.10
2018-12-16T02:30:23.502Z,90.10
2018-12-16T02:32:51.994Z,89.90
2018-12-16T02:35:20.084Z,89.90
2018-12-16T02:37:48.202Z,88.80
2018-12-16T02:40:16.345Z,88.80
2018-12-16T02:42:44.550Z,88.30
2018-12-16T02:45:12.804Z,87.90
2018-12-16T02:47:40.956Z,87.90
2018-12-16T02:50:09.088Z,87.60
2018-12-16T02:52:37.289Z,86.60
2018-12-16T02:55:05.898Z,86.40
2018-12-16T02:57:34.140Z,85.60
2018-12-16T03:00:02.366Z,85.40
2018-12-16T03:02:30.502Z,83.10
2018-12-16T03:04:58.621Z,83.10
2018-12-16T03:07:26.754Z,80.20
2018-12-16T03:09:54.889Z,80.10
2018-12-16T03:12:23.021Z,79.90
2018-12-16T03:14:51.138Z,79.70
2018-12-16T03:17:19.409Z,78.70
2018-12-16T03:19:47.509Z,78.30
2018-12-16T03:22:15.619Z,78.20
2018-12-16T03:24:43.706Z,78.00
2018-12-16T03:27:11.898Z,77.90
2018-12-16T03:29:40.522Z,77.40
2018-12-16T03:32:09.306Z,76.20
2018-12-16T03:34:37.971Z,76.00
2018-12-16T03:37:06.088Z,76.40
2018-12-16T03:39:34.425Z,75.60
2018-12-16T03:42:02.599Z,75.80
2018-12-16T03:44:30.714Z,75.70
2018-12-16T03:46:59.053Z,74.60
2018-12-16T03:49:27.189Z,75.10
2018-12-16T03:51:55.328Z,74.30
2018-12-16T03:54:23.880Z,74.70
2018-12-16T03:56:52.033Z,74.80
2018-12-16T03:59:20.485Z,75.30
2018-12-16T04:01:58.131Z,76.40
2018-12-16T04:04:26.780Z,77.70
2018-12-16T04:06:55.090Z,78.40
2018-12-16T04:09:23.213Z,79.20
2018-12-16T04:11:51.326Z,79.50
2018-12-16T04:14:19.433Z,80.10
2018-12-16T04:16:47.597Z,80.90
2018-12-16T04:19:15.709Z,81.60
2018-12-16T04:21:43.870Z,82.80
2018-12-16T04:24:12.216Z,84.00
2018-12-16T04:26:40.333Z,85.00
2018-12-16T04:29:08.454Z,86.00
2018-12-16T04:31:36.637Z,86.40
2018-12-16T04:34:04.818Z,86.50
2018-12-16T04:36:33.297Z,86.60
2018-12-16T04:39:01.454Z,86.80
2018-12-16T04:41:29.596Z,87.10
2018-12-16T04:43:57.689Z,87.40
2018-12-16T04:46:26.281Z,86.80
2018-12-16T04:48:54.548Z,86.20
2018-12-16T04:51:22.871Z,86.20
2018-12-16T04:53:51.034Z,87.50
2018-12-16T04:56:19.275Z,88.90
2018-12-16T04:58:47.532Z,88.60
2018-12-16T05:01:15.874Z,88.50
2018-12-16T05:03:44.006Z,88.40
2018-12-16T05:06:12.208Z,88.40
2018-12-16T05:08:40.561Z,88.50
2018-12-16T05:11:08.697Z,88.80
2018-12-16T05:13:36.865Z,88.40
2018-12-16T05:16:05.185Z,88.50
2018-12-16T05:18:33.474Z,88.50
2018-12-16T05:21:01.639Z,89.10
2018-12-16T05:23:30.209Z,89.10
2018-12-16T05:25:58.352Z,87.50
2018-12-16T05:28:26.606Z,88.00
2018-12-16T05:30:54.703Z,88.10
2018-12-16T05:33:22.801Z,88.40
2018-12-16T05:35:50.902Z,88.50
2018-12-16T05:38:19.677Z,88.80
2018-12-16T05:40:47.817Z,88.70
2018-12-16T05:43:15.940Z,88.80
2018-12-16T05:45:44.057Z,88.70
2018-12-16T05:48:12.197Z,88.60
2018-12-16T05:50:40.308Z,89.00
2018-12-16T05:53:08.709Z,88.90
2018-12-16T05:55:36.805Z,88.70
2018-12-16T05:58:04.919Z,88.50
2018-12-16T06:00:33.093Z,88.70
2018-12-16T06:03:01.180Z,88.50
2018-12-16T06:05:29.330Z,88.40
2018-12-16T06:07:57.790Z,88.80
2018-12-16T06:10:25.905Z,88.40
2018-12-16T06:12:54.015Z,88.50
2018-12-16T06:15:22.581Z,88.60
2018-12-16T06:17:50.783Z,88.50
2018-12-16T06:20:18.901Z,88.50
2018-12-16T06:22:47.194Z,88.40
2018-12-16T06:25:15.448Z,88.80
2018-12-16T06:27:43.594Z,89.00
2018-12-16T06:30:12.455Z,88.90
2018-12-16T06:32:40.572Z,88.90
2018-12-16T06:35:08.751Z,88.90
2018-12-16T06:37:36.926Z,89.00
2018-12-16T06:40:05.709Z,88.70
2018-12-16T06:42:34.029Z,88.90
2018-12-16T06:45:02.304Z,88.10
2018-12-16T06:47:31.022Z,88.10
2018-12-16T06:49:59.553Z,88.50
2018-12-16T06:52:28.062Z,88.30
2018-12-16T06:54:56.201Z,88.70
2018-12-16T06:57:24.321Z,88.40
2018-12-16T06:59:53.032Z,88.40
2018-12-16T07:02:21.158Z,88.50
2018-12-16T07:04:49.286Z,88.40
2018-12-16T07:07:17.833Z,88.70
2018-12-16T07:09:45.993Z,88.70
2018-12-16T07:12:14.304Z,87.90
2018-12-16T07:14:42.524Z,87.40
2018-12-16T07:17:10.616Z,85.10
2018-12-16T07:19:38.888Z,83.50
2018-12-16T07:22:07.285Z,83.70
2018-12-16T07:24:35.453Z,83.70
2018-12-16T07:27:03.794Z,83.70
2018-12-16T07:29:32.573Z,84.20
2018-12-16T07:32:00.769Z,84.20
2018-12-16T07:34:29.218Z,83.80
2018-12-16T07:36:57.737Z,83.80
2018-12-16T07:39:26.019Z,83.60
2018-12-16T07:41:54.521Z,83.90
2018-12-16T07:44:22.872Z,83.40
2018-12-16T07:46:51.859Z,82.90
2018-12-16T07:49:20.188Z,81.90
2018-12-16T07:51:48.853Z,81.70
2018-12-16T07:54:17.334Z,80.90
2018-12-16T07:56:46.585Z,80.50
2018-12-16T07:59:14.778Z,79.70
2018-12-16T08:01:43.036Z,79.60
2018-12-16T08:04:11.194Z,78.80
2018-12-16T08:06:39.322Z,78.90
2018-12-16T08:09:07.660Z,78.50
2018-12-16T08:11:35.821Z,78.70
2018-12-16T08:14:05.529Z,78.70
2018-12-16T08:16:33.653Z,79.20
2018-12-16T08:19:07.083Z,78.80
2018-12-16T08:21:32.445Z,78.70
2018-12-16T08:24:00.573Z,78.30
2018-12-16T08:26:28.874Z,78.50
2018-12-16T08:28:57.096Z,78.20
2018-12-16T08:31:25.271Z,78.70
2018-12-16T08:33:53.414Z,78.70
2018-12-16T08:36:21.746Z,78.50
2018-12-16T08:38:50.464Z,78.00
2018-12-16T08:41:18.593Z,78.30
2018-12-16T08:43:46.914Z,78.30
2018-12-16T08:46:14.998Z,78.20
2018-12-16T08:48:43.146Z,77.80
2018-12-16T08:51:11.641Z,77.50
2018-12-16T08:53:39.817Z,77.20
2018-12-16T08:56:07.885Z,77.20
2018-12-16T08:58:36.047Z,76.90
2018-12-16T09:01:04.170Z,76.60
2018-12-16T09:03:32.262Z,77.20
2018-12-16T09:06:00.379Z,77.90
2018-12-16T09:08:28.629Z,77.90
2018-12-16T09:10:56.800Z,77.80
2018-12-16T09:13:24.945Z,77.00
2018-12-16T09:15:53.092Z,76.50
2018-12-16T09:18:21.150Z,76.90
2018-12-16T09:20:49.323Z,77.50
2018-12-16T09:23:17.460Z,76.90
2018-12-16T09:25:45.575Z,75.90
2018-12-16T09:28:13.763Z,76.40
2018-12-16T09:30:42.537Z,76.70
2018-12-16T09:33:10.681Z,76.20
2018-12-16T09:35:38.877Z,77.00
2018-12-16T09:38:06.956Z,76.80
2018-12-16T09:40:35.108Z,76.50
2018-12-16T09:43:03.593Z,76.70
2018-12-16T09:45:32.720Z,77.20
2018-12-16T09:48:01.205Z,76.70
2018-12-16T09:50:29.302Z,77.00
2018-12-16T09:52:57.651Z,78.30
2018-12-16T09:55:25.821Z,77.70
2018-12-16T09:57:53.965Z,76.90
2018-12-16T10:00:22.142Z,75.90
2018-12-16T10:02:50.238Z,76.00
2018-12-16T10:05:18.369Z,76.50
2018-12-16T10:07:46.491Z,75.60
2018-12-16T10:10:14.834Z,76.10
2018-12-16T10:12:43.005Z,76.40
2018-12-16T10:15:11.126Z,76.50
2018-12-16T10:17:39.457Z,75.60
2018-12-16T10:20:09.213Z,75.30
2018-12-16T10:22:37.341Z,74.80
2018-12-16T10:25:05.693Z,74.80
2018-12-16T10:27:33.819Z,75.10
2018-12-16T10:30:02.107Z,75.00
2018-12-16T10:32:30.416Z,75.70
2018-12-16T10:34:59.000Z,75.90
2018-12-16T10:37:27.977Z,76.60
2018-12-16T10:39:56.678Z,77.20
2018-12-16T10:42:25.055Z,77.10
2018-12-16T10:44:53.476Z,76.80
2018-12-16T10:47:22.185Z,76.00
2018-12-16T10:49:50.461Z,75.60
2018-12-16T10:52:18.681Z,75.40
2018-12-16T10:54:46.853Z,75.90
2018-12-16T10:57:14.944Z,76.20
2018-12-16T10:59:43.093Z,75.10
2018-12-16T11:02:11.225Z,75.00
2018-12-16T11:04:39.381Z,74.50
2018-12-16T11:07:08.053Z,74.60
2018-12-16T11:09:36.134Z,74.50
2018-12-16T11:12:04.302Z,74.00
2018-12-16T11:14:32.543Z,74.10
2018-12-16T11:17:00.681Z,73.90
2018-12-16T11:19:28.789Z,73.60
2018-12-16T11:21:56.977Z,73.20
2018-12-16T11:24:25.146Z,72.90
2018-12-16T11:26:53.298Z,72.80
2018-12-16T11:29:21.448Z,72.90
2018-12-16T11:31:49.552Z,72.90
2018-12-16T11:34:17.726Z,73.40
2018-12-16T11:36:46.338Z,72.90
2018-12-16T11:39:14.885Z,72.90
2018-12-16T11:41:43.026Z,73.30
2018-12-16T11:44:11.225Z,74.00
2018-12-16T11:46:39.354Z,74.00
2018-12-16T11:49:07.783Z,74.10
2018-12-16T11:51:36.648Z,73.30
2018-12-16T11:54:04.862Z,73.40
2018-12-16T11:56:33.091Z,73.10
2018-12-16T11:59:01.338Z,73.20
2018-12-16T12:01:29.578Z,73.50
2018-12-16T12:03:58.072Z,73.00
2018-12-16T12:06:28.252Z,73.10
2018-12-16T12:08:56.723Z,73.40
2018-12-16T12:11:25.946Z,73.30
2018-12-16T12:13:54.298Z,72.50
2018-12-16T12:16:22.857Z,72.60
2018-12-16T12:18:59.138Z,72.40
2018-12-16T12:21:27.504Z,72.20
2018-12-16T12:23:56.016Z,72.20
2018-12-16T12:26:24.502Z,72.20
2018-12-16T12:28:53.043Z,72.10
2018-12-16T12:31:21.387Z,71.50
2018-12-16T12:33:49.651Z,72.00
2018-12-16T12:36:18.670Z,71.80
2018-12-16T12:38:47.012Z,71.90
2018-12-16T12:41:15.245Z,71.20
2018-12-16T12:43:44.192Z,71.10
2018-12-16T12:46:12.557Z,71.50
2018-12-16T12:48:40.749Z,71.00
2018-12-16T12:51:09.463Z,70.90
2018-12-16T12:53:38.254Z,71.20
2018-12-16T12:56:07.525Z,71.30
2018-12-16T12:58:35.957Z,70.90
2018-12-16T13:01:04.791Z,71.00
2018-12-16T13:03:32.925Z,71.10
2018-12-16T13:06:02.033Z,71.30
2018-12-16T13:08:30.360Z,71.50
2018-12-16T13:10:59.240Z,72.00
2018-12-16T13:13:27.374Z,72.40
2018-12-16T13:15:55.562Z,72.30
2018-12-16T13:18:23.768Z,72.80
2018-12-16T13:20:51.862Z,72.60
2018-12-16T13:23:19.991Z,73.20
2018-12-16T13:25:59.567Z,73.50
2018-12-16T13:28:27.954Z,73.50
2018-12-16T13:30:56.933Z,73.60
2018-12-16T13:33:25.084Z,73.40
2018-12-16T13:35:54.027Z,73.30
2018-12-16T13:38:22.166Z,73.80
2018-12-16T13:40:50.375Z,73.30
2018-12-16T13:43:18.497Z,73.30
2018-12-16T13:45:46.768Z,73.70
2018-12-16T13:48:14.892Z,73.80
2018-12-16T13:50:43.641Z,73.80
2018-12-16T13:53:12.277Z,73.60
2018-12-16T13:55:41.039Z,73.80
2018-12-16T13:58:09.610Z,73.90
2018-12-16T14:00:37.990Z,73.70
2018-12-16T14:03:06.112Z,73.70
2018-12-16T14:05:34.286Z,74.30
2018-12-16T14:08:02.450Z,73.90
2018-12-16T14:10:30.565Z,74.00
2018-12-16T14:13:02.008Z,74.40
2018-12-16T14:15:30.173Z,74.60
2018-12-16T14:17:58.318Z,74.60
2018-12-16T14:20:26.827Z,74.50
2018-12-16T14:22:55.865Z,74.50
2018-12-16T14:25:24.037Z,75.10
2018-12-16T14:27:52.330Z,75.20
2018-12-16T14:30:20.461Z,74.90
2018-12-16T14:32:48.847Z,74.90
2018-12-16T14:35:17.075Z,74.70
2018-12-16T14:37:45.301Z,75.00
2018-12-16T14:40:14.161Z,76.10
2018-12-16T14:42:42.326Z,75.40
2018-12-16T14:45:10.809Z,75.60
2018-12-16T14:47:38.941Z,75.50
2018-12-16T14:51:12.469Z,75.70
2018-12-16T14:53:41.761Z,76.00
2018-12-16T14:56:09.910Z,76.30
2018-12-16T14:58:38.095Z,76.60
2018-12-16T15:01:06.249Z,76.50
2018-12-16T15:03:34.386Z,76.70
2018-12-16T15:06:02.493Z,76.90
2018-12-16T15:08:31.078Z,77.00
2018-12-16T15:10:59.802Z,76.80
2018-12-16T15:13:27.975Z,77.00
2018-12-16T15:15:56.174Z,77.30
2018-12-16T15:18:24.370Z,77.40
2018-12-16T15:20:52.595Z,77.50
2018-12-16T15:23:21.565Z,77.60
2018-12-16T15:25:49.707Z,77.90
2018-12-16T15:28:17.853Z,78.10
2018-12-16T15:30:46.175Z,78.40
2018-12-16T15:33:14.334Z,78.70
2018-12-16T15:35:42.503Z,78.70
2018-12-16T15:38:11.106Z,79.00
2018-12-16T15:40:39.197Z,79.00
2018-12-16T15:43:07.367Z,79.30
2018-12-16T15:45:35.630Z,79.40
2018-12-16T15:48:03.819Z,79.80
2018-12-16T15:50:32.070Z,79.90
2018-12-16T15:53:00.301Z,80.00
2018-12-16T15:55:28.732Z,80.20
2018-12-16T15:57:57.209Z,80.50
2018-12-16T16:00:25.974Z,80.60
2018-12-16T16:02:54.108Z,80.80
2018-12-16T16:05:22.273Z,80.70
2018-12-16T16:07:50.393Z,80.80
2018-12-16T16:10:18.529Z,80.80
2018-12-16T16:12:46.681Z,81.00
2018-12-16T16:15:14.931Z,81.00
2018-12-16T16:17:43.074Z,81.30
2018-12-16T16:20:11.185Z,81.40
2018-12-16T16:23:10.179Z,81.70
2018-12-16T16:25:38.332Z,81.80
2018-12-16T16:28:06.552Z,81.90
2018-12-16T16:30:34.709Z,81.90
2018-12-16T16:33:03.014Z,82.00
2018-12-16T16:35:31.359Z,82.10
2018-12-16T16:38:00.784Z,82.20
2018-12-16T16:40:29.521Z,82.30
2018-12-16T16:42:57.696Z,82.40
2018-12-16T16:45:25.869Z,82.40
2018-12-16T16:47:54.064Z,82.30
2018-12-16T16:50:22.263Z,82.40
2018-12-16T16:52:50.615Z,82.50
2018-12-16T16:55:18.768Z,82.50
2018-12-16T16:57:47.249Z,82.20
2018-12-16T17:00:16.293Z,82.30
2018-12-16T17:02:44.541Z,82.30
2018-12-16T17:05:12.829Z,82.20
2018-12-16T17:07:40.961Z,82.10
2018-12-16T17:10:09.150Z,82.10
2018-12-16T17:12:37.304Z,82.10
2018-12-16T17:15:06.255Z,82.20
2018-12-16T17:17:34.374Z,82.20
2018-12-16T17:20:02.526Z,82.20
2018-12-16T17:22:32.788Z,82.00
2018-12-16T17:25:00.909Z,82.00
2018-12-16T17:27:29.047Z,82.10
2018-12-16T17:29:57.086Z,82.10
2018-12-16T17:32:25.297Z,82.20
2018-12-16T17:34:53.806Z,82.10
2018-12-16T17:37:22.009Z,82.00
2018-12-16T17:39:50.096Z,82.10
2018-12-16T17:42:18.400Z,82.10
2018-12-16T17:44:46.509Z,82.10
2018-12-16T17:47:14.754Z,82.10
2018-12-16T17:49:45.474Z,82.20
2018-12-16T17:52:13.616Z,82.10
2018-12-16T17:54:41.857Z,82.10
2018-12-16T17:57:10.386Z,81.60
2018-12-16T17:59:38.844Z,81.50
2018-12-16T18:02:07.047Z,81.80
2018-12-16T18:04:35.295Z,81.80
2018-12-16T18:07:03.422Z,82.00
2018-12-16T18:09:31.626Z,82.20
2018-12-16T18:12:00.297Z,82.10
2018-12-16T18:14:28.514Z,82.40
2018-12-16T18:16:57.810Z,82.20
2018-12-16T18:19:31.516Z,82.10
2018-12-16T18:22:01.473Z,82.30
2018-12-16T18:24:29.914Z,82.70
2018-12-16T18:26:58.071Z,82.60
2018-12-16T18:29:26.238Z,82.50
2018-12-16T18:31:54.585Z,82.30
2018-12-16T18:34:22.935Z,82.60
2018-12-16T18:36:51.262Z,83.30
2018-12-16T18:39:19.684Z,82.60
2018-12-16T18:41:48.014Z,82.60
2018-12-16T18:44:16.158Z,82.80
2018-12-16T18:46:44.341Z,82.60
2018-12-16T18:49:12.545Z,82.40
2018-12-16T18:51:40.688Z,82.20
2018-12-16T18:54:09.070Z,82.30
2018-12-16T18:56:37.356Z,82.50
2018-12-16T18:59:05.542Z,82.50
2018-12-16T19:01:34.091Z,82.20
2018-12-16T19:04:02.306Z,82.10
2018-12-16T19:06:31.185Z,82.20
2018-12-16T19:08:59.361Z,82.30
2018-12-16T19:11:27.826Z,82.50
2018-12-16T19:13:55.994Z,82.60
2018-12-16T19:16:24.910Z,82.20
2018-12-16T19:18:53.523Z,81.90
2018-12-16T19:21:21.858Z,81.90
2018-12-16T19:23:50.146Z,81.70
2018-12-16T19:26:18.342Z,81.90
2018-12-16T19:28:46.489Z,82.00
2018-12-16T19:31:14.619Z,82.30
2018-12-16T19:33:42.779Z,82.40
2018-12-16T19:36:11.075Z,82.50
2018-12-16T19:38:41.097Z,82.80
2018-12-16T19:41:09.306Z,83.00
2018-12-16T19:43:37.520Z,82.70
2018-12-16T19:46:05.741Z,82.90
2018-12-16T19:48:33.883Z,83.30
2018-12-16T19:51:02.038Z,83.60
2018-12-16T19:53:30.442Z,84.10
2018-12-16T19:56:00.400Z,84.30
2018-12-16T19:58:28.733Z,84.40
2018-12-16T20:00:56.953Z,84.30
2018-12-16T20:03:25.466Z,84.50
2018-12-16T20:06:00.006Z,84.70
2018-12-16T20:08:28.253Z,84.60
2018-12-16T20:10:56.386Z,84.80
2018-12-16T20:13:24.751Z,85.30
2018-12-16T20:15:52.916Z,85.20
2018-12-16T20:18:21.102Z,85.00
2018-12-16T20:20:49.321Z,85.30
2018-12-16T20:23:17.437Z,85.70
2018-12-16T20:25:45.580Z,85.90
2018-12-16T20:28:13.853Z,86.00
2018-12-16T20:30:42.197Z,86.00
2018-12-16T20:33:10.349Z,86.50
2018-12-16T20:35:38.515Z,87.30
2018-12-16T20:38:06.817Z,87.60
2018-12-16T20:40:35.006Z,87.70
2018-12-16T20:43:03.177Z,88.00
2018-12-16T20:45:31.301Z,88.40
2018-12-16T20:48:00.149Z,89.00
2018-12-16T20:50:28.567Z,89.10
2018-12-16T20:52:56.746Z,89.40
2018-12-16T20:55:24.853Z,89.90
2018-12-16T20:57:53.381Z,90.10
2018-12-16T21:00:21.591Z,90.20
2018-12-16T21:02:49.719Z,90.00
2018-12-16T21:05:19.759Z,90.00
2018-12-16T21:07:47.907Z,90.00
2018-12-16T21:10:16.041Z,90.20
2018-12-16T21:12:49.793Z,90.40
2018-12-16T21:15:23.398Z,90.70
2018-12-16T21:17:56.972Z,90.50
2018-12-16T21:20:25.294Z,90.40
2018-12-16T21:22:53.686Z,90.50
2018-12-16T21:25:22.244Z,90.70
2018-12-16T21:27:50.523Z,90.70
2018-12-16T21:30:18.685Z,90.60
2018-12-16T21:32:47.066Z,90.90
2018-12-16T21:35:15.250Z,90.70
2018-12-16T21:37:43.421Z,90.70
2018-12-16T21:40:12.277Z,90.40
2018-12-16T21:42:40.456Z,90.30
2018-12-16T21:45:08.594Z,90.00
2018-12-16T21:47:36.938Z,90.20
2018-12-16T21:50:05.760Z,90.20
2018-12-16T21:52:33.909Z,90.20
2018-12-16T21:55:02.176Z,90.40
2018-12-16T21:57:33.138Z,90.30
2018-12-16T22:00:01.117Z,90.40
2018-12-16T22:02:29.268Z,90.70
2018-12-16T22:04:57.415Z,90.60
2018-12-16T22:07:26.935Z,90.80
2018-12-16T22:09:55.040Z,90.90
2018-12-16T22:12:23.181Z,91.20
2018-12-16T22:14:51.440Z,91.20
2018-12-16T22:17:19.643Z,90.90
2018-12-16T22:19:48.327Z,90.90
2018-12-16T22:22:16.675Z,90.90
2018-12-16T22:24:45.095Z,90.90
2018-12-16T22:27:13.284Z,90.90
2018-12-16T22:29:42.292Z,91.20
2018-12-16T22:32:10.974Z,91.30
2018-12-16T22:34:39.102Z,91.40
2018-12-16T22:37:08.458Z,91.80
2018-12-16T22:39:36.594Z,92.20
2018-12-16T22:42:04.745Z,91.90
2018-12-16T22:44:32.950Z,91.80
2018-12-16T22:47:01.040Z,91.70
2018-12-16T22:49:29.641Z,91.80
2018-12-16T22:51:58.053Z,91.70
2018-12-16T22:54:26.213Z,91.40
2018-12-16T22:56:54.507Z,91.50
2018-12-16T22:59:23.049Z,91.50
2018-12-16T23:01:51.397Z,91.60
2018-12-16T23:04:19.841Z,91.50
2018-12-16T23:06:48.401Z,91.50
2018-12-16T23:09:17.296Z,91.50
2018-12-16T23:11:45.448Z,91.50
2018-12-16T23:14:13.812Z,91.50
2018-12-16T23:16:41.981Z,91.60
2018-12-16T23:19:10.154Z,91.60
2018-12-16T23:21:38.769Z,91.70
2018-12-16T23:24:06.895Z,92.00
2018-12-16T23:26:37.053Z,92.10
2018-12-16T23:29:05.218Z,92.20
2018-12-16T23:31:33.560Z,92.00
2018-12-16T23:34:01.747Z,92.00
2018-12-16T23:36:29.913Z,92.00
2018-12-16T23:41:35.254Z,92.40
2018-12-16T23:44:03.426Z,92.30
2018-12-16T23:46:31.768Z,92.50
2018-12-16T23:48:59.915Z,92.40
2018-12-16T23:51:28.318Z,92.60
2018-12-16T23:53:56.485Z,92.00
2018-12-16T23:56:25.088Z,91.70
2018-12-16T23:58:53.890Z,91.70
